sensor_id;sensor_type;location;lat;lon;timestamp;P1;durP1;ratioP1;P2;durP2;ratioP2
42600;SDS011;28229;48.856;9.088;2023-03-13T00:02:14;7.53;;;3.00;;
42600;SDS011;28229;48.856;9.088;2023-03-13T00:04:40;9.47;;;3.20;;
42600;SDS011;28229;48.856;9.088;2023-03-13T00:07:06;9.73;;;3.00;;
42600;SDS011;28229;48.856;9.088;2023-03-13T00:09:32;10.70;;;2.87;;
42600;SDS011;28229;48.856;9.088;2023-03-13T00:11:58;8.37;;;3.10;;
42600;SDS011;28229;48.856;9.088;2023-03-13T00:14:25;6.27;;;2.83;;
42600;SDS011;28229;48.856;9.088;2023-03-13T00:16:51;10.60;;;3.53;;
42600;SDS011;28229;48.856;9.088;2023-03-13T00:19:17;7.87;;;3.00;;
42600;SDS011;28229;48.856;9.088;2023-03-13T00:21:43;10.80;;;2.83;;
42600;SDS011;28229;48.856;9.088;2023-03-13T00:24:09;8.33;;;2.60;;
42600;SDS011;28229;48.856;9.088;2023-03-13T00:26:36;6.47;;;2.53;;
42600;SDS011;28229;48.856;9.088;2023-03-13T00:29:03;7.20;;;2.90;;
42600;SDS011;28229;48.856;9.088;2023-03-13T00:31:29;5.27;;;2.23;;
42600;SDS011;28229;48.856;9.088;2023-03-13T00:33:58;7.17;;;2.60;;
42600;SDS011;28229;48.856;9.088;2023-03-13T00:36:27;8.37;;;2.63;;
42600;SDS011;28229;48.856;9.088;2023-03-13T00:38:57;8.13;;;3.00;;
42600;SDS011;28229;48.856;9.088;2023-03-13T00:41:25;7.27;;;2.60;;
42600;SDS011;28229;48.856;9.088;2023-03-13T00:43:53;7.70;;;2.80;;
42600;SDS011;28229;48.856;9.088;2023-03-13T00:46:21;6.47;;;3.00;;
42600;SDS011;28229;48.856;9.088;2023-03-13T00:48:48;6.20;;;2.70;;
42600;SDS011;28229;48.856;9.088;2023-03-13T00:51:16;7.90;;;3.30;;
42600;SDS011;28229;48.856;9.088;2023-03-13T00:53:45;5.43;;;2.63;;
42600;SDS011;28229;48.856;9.088;2023-03-13T00:56:12;6.00;;;2.70;;
42600;SDS011;28229;48.856;9.088;2023-03-13T00:58:40;9.40;;;3.00;;
42600;SDS011;28229;48.856;9.088;2023-03-13T01:01:11;10.83;;;2.87;;
42600;SDS011;28229;48.856;9.088;2023-03-13T01:03:41;6.27;;;2.20;;
42600;SDS011;28229;48.856;9.088;2023-03-13T01:06:12;10.27;;;2.77;;
42600;SDS011;28229;48.856;9.088;2023-03-13T01:08:40;9.03;;;2.70;;
42600;SDS011;28229;48.856;9.088;2023-03-13T01:11:07;5.57;;;2.60;;
42600;SDS011;28229;48.856;9.088;2023-03-13T01:13:36;9.33;;;2.63;;
42600;SDS011;28229;48.856;9.088;2023-03-13T01:16:07;7.87;;;2.77;;
42600;SDS011;28229;48.856;9.088;2023-03-13T01:18:39;5.93;;;2.50;;
42600;SDS011;28229;48.856;9.088;2023-03-13T01:21:07;7.77;;;2.40;;
42600;SDS011;28229;48.856;9.088;2023-03-13T01:23:34;8.20;;;2.57;;
42600;SDS011;28229;48.856;9.088;2023-03-13T01:26:00;9.50;;;2.60;;
42600;SDS011;28229;48.856;9.088;2023-03-13T01:28:26;8.63;;;2.53;;
42600;SDS011;28229;48.856;9.088;2023-03-13T01:30:53;7.57;;;2.40;;
42600;SDS011;28229;48.856;9.088;2023-03-13T01:33:19;6.37;;;2.50;;
42600;SDS011;28229;48.856;9.088;2023-03-13T01:35:46;8.47;;;2.30;;
42600;SDS011;28229;48.856;9.088;2023-03-13T01:38:13;9.47;;;2.57;;
42600;SDS011;28229;48.856;9.088;2023-03-13T01:40:44;6.97;;;2.40;;
42600;SDS011;28229;48.856;9.088;2023-03-13T01:49:15;7.80;;;2.57;;
42600;SDS011;28229;48.856;9.088;2023-03-13T01:52:15;5.83;;;2.20;;
42600;SDS011;28229;48.856;9.088;2023-03-13T01:54:56;3.20;;;2.13;;
42600;SDS011;28229;48.856;9.088;2023-03-13T01:57:33;6.73;;;1.90;;
42600;SDS011;28229;48.856;9.088;2023-03-13T02:00:07;9.70;;;2.30;;
42600;SDS011;28229;48.856;9.088;2023-03-13T02:02:40;6.37;;;2.10;;
42600;SDS011;28229;48.856;9.088;2023-03-13T02:05:10;8.03;;;2.27;;
42600;SDS011;28229;48.856;9.088;2023-03-13T02:07:39;8.87;;;2.07;;
42600;SDS011;28229;48.856;9.088;2023-03-13T02:10:10;6.17;;;2.23;;
42600;SDS011;28229;48.856;9.088;2023-03-13T02:12:38;5.53;;;2.10;;
42600;SDS011;28229;48.856;9.088;2023-03-13T02:15:18;5.87;;;1.90;;
42600;SDS011;28229;48.856;9.088;2023-03-13T02:17:46;6.43;;;2.13;;
42600;SDS011;28229;48.856;9.088;2023-03-13T02:20:15;7.77;;;2.47;;
42600;SDS011;28229;48.856;9.088;2023-03-13T02:30:39;5.60;;;2.07;;
42600;SDS011;28229;48.856;9.088;2023-03-13T02:33:08;7.57;;;2.10;;
42600;SDS011;28229;48.856;9.088;2023-03-13T02:35:39;5.97;;;1.93;;
42600;SDS011;28229;48.856;9.088;2023-03-13T02:38:12;6.83;;;2.17;;
42600;SDS011;28229;48.856;9.088;2023-03-13T02:40:43;5.50;;;1.83;;
42600;SDS011;28229;48.856;9.088;2023-03-13T02:43:17;6.00;;;1.90;;
42600;SDS011;28229;48.856;9.088;2023-03-13T02:48:53;3.87;;;1.33;;
42600;SDS011;28229;48.856;9.088;2023-03-13T02:54:03;3.87;;;1.73;;
42600;SDS011;28229;48.856;9.088;2023-03-13T02:56:35;5.47;;;1.70;;
42600;SDS011;28229;48.856;9.088;2023-03-13T02:59:04;4.00;;;1.50;;
42600;SDS011;28229;48.856;9.088;2023-03-13T03:01:32;2.50;;;1.40;;
42600;SDS011;28229;48.856;9.088;2023-03-13T03:03:59;3.23;;;1.27;;
42600;SDS011;28229;48.856;9.088;2023-03-13T03:06:25;3.37;;;1.20;;
42600;SDS011;28229;48.856;9.088;2023-03-13T03:08:51;2.50;;;1.23;;
42600;SDS011;28229;48.856;9.088;2023-03-13T03:11:18;2.53;;;1.20;;
42600;SDS011;28229;48.856;9.088;2023-03-13T03:13:47;3.60;;;1.20;;
42600;SDS011;28229;48.856;9.088;2023-03-13T03:16:16;3.73;;;1.33;;
42600;SDS011;28229;48.856;9.088;2023-03-13T03:18:50;2.83;;;1.20;;
42600;SDS011;28229;48.856;9.088;2023-03-13T03:21:16;5.00;;;1.33;;
42600;SDS011;28229;48.856;9.088;2023-03-13T03:23:43;3.47;;;1.40;;
42600;SDS011;28229;48.856;9.088;2023-03-13T03:26:09;2.10;;;1.13;;
42600;SDS011;28229;48.856;9.088;2023-03-13T03:28:35;3.13;;;1.00;;
42600;SDS011;28229;48.856;9.088;2023-03-13T03:31:06;2.20;;;1.17;;
42600;SDS011;28229;48.856;9.088;2023-03-13T03:33:36;2.97;;;1.10;;
42600;SDS011;28229;48.856;9.088;2023-03-13T03:36:07;2.90;;;1.10;;
42600;SDS011;28229;48.856;9.088;2023-03-13T03:38:38;1.83;;;1.00;;
42600;SDS011;28229;48.856;9.088;2023-03-13T03:41:07;3.00;;;1.20;;
42600;SDS011;28229;48.856;9.088;2023-03-13T03:43:34;1.97;;;0.97;;
42600;SDS011;28229;48.856;9.088;2023-03-13T03:46:01;2.87;;;1.20;;
42600;SDS011;28229;48.856;9.088;2023-03-13T03:48:27;2.50;;;1.30;;
42600;SDS011;28229;48.856;9.088;2023-03-13T03:50:55;3.07;;;1.20;;
42600;SDS011;28229;48.856;9.088;2023-03-13T03:53:22;1.97;;;0.97;;
42600;SDS011;28229;48.856;9.088;2023-03-13T03:55:49;2.13;;;1.00;;
42600;SDS011;28229;48.856;9.088;2023-03-13T03:58:16;2.07;;;1.10;;
42600;SDS011;28229;48.856;9.088;2023-03-13T04:00:57;3.57;;;0.97;;
42600;SDS011;28229;48.856;9.088;2023-03-13T04:03:24;1.77;;;1.10;;
42600;SDS011;28229;48.856;9.088;2023-03-13T04:05:51;2.37;;;0.93;;
42600;SDS011;28229;48.856;9.088;2023-03-13T04:08:17;1.40;;;0.80;;
42600;SDS011;28229;48.856;9.088;2023-03-13T04:10:43;2.40;;;0.77;;
42600;SDS011;28229;48.856;9.088;2023-03-13T04:13:10;1.10;;;0.97;;
42600;SDS011;28229;48.856;9.088;2023-03-13T04:15:37;0.60;;;0.60;;
42600;SDS011;28229;48.856;9.088;2023-03-13T04:18:05;2.63;;;0.80;;
42600;SDS011;28229;48.856;9.088;2023-03-13T04:20:31;0.83;;;0.80;;
42600;SDS011;28229;48.856;9.088;2023-03-13T04:22:57;1.80;;;0.90;;
42600;SDS011;28229;48.856;9.088;2023-03-13T04:25:24;1.33;;;0.80;;
42600;SDS011;28229;48.856;9.088;2023-03-13T04:27:53;1.67;;;0.77;;
42600;SDS011;28229;48.856;9.088;2023-03-13T04:30:23;0.80;;;0.73;;
42600;SDS011;28229;48.856;9.088;2023-03-13T04:33:15;1.03;;;0.70;;
42600;SDS011;28229;48.856;9.088;2023-03-13T04:36:05;1.00;;;0.80;;
42600;SDS011;28229;48.856;9.088;2023-03-13T04:38:45;1.00;;;0.70;;
42600;SDS011;28229;48.856;9.088;2023-03-13T04:41:32;0.67;;;0.67;;
42600;SDS011;28229;48.856;9.088;2023-03-13T04:44:19;1.23;;;0.70;;
42600;SDS011;28229;48.856;9.088;2023-03-13T04:47:03;1.03;;;0.60;;
42600;SDS011;28229;48.856;9.088;2023-03-13T04:50:09;1.43;;;0.60;;
42600;SDS011;28229;48.856;9.088;2023-03-13T04:52:47;1.23;;;0.77;;
42600;SDS011;28229;48.856;9.088;2023-03-13T04:55:23;1.20;;;0.70;;
42600;SDS011;28229;48.856;9.088;2023-03-13T04:58:19;1.20;;;0.90;;
42600;SDS011;28229;48.856;9.088;2023-03-13T05:01:05;1.13;;;0.70;;
42600;SDS011;28229;48.856;9.088;2023-03-13T05:03:50;0.60;;;0.60;;
42600;SDS011;28229;48.856;9.088;2023-03-13T05:06:54;1.20;;;0.50;;
42600;SDS011;28229;48.856;9.088;2023-03-13T05:09:35;2.50;;;1.00;;
42600;SDS011;28229;48.856;9.088;2023-03-13T05:12:34;1.10;;;0.80;;
42600;SDS011;28229;48.856;9.088;2023-03-13T05:15:33;1.87;;;0.80;;
42600;SDS011;28229;48.856;9.088;2023-03-13T05:18:21;0.60;;;0.50;;
42600;SDS011;28229;48.856;9.088;2023-03-13T05:21:00;0.63;;;0.60;;
42600;SDS011;28229;48.856;9.088;2023-03-13T05:23:27;0.87;;;0.60;;
42600;SDS011;28229;48.856;9.088;2023-03-13T05:26:16;0.77;;;0.57;;
42600;SDS011;28229;48.856;9.088;2023-03-13T05:29:02;0.60;;;0.60;;
42600;SDS011;28229;48.856;9.088;2023-03-13T05:31:43;0.63;;;0.63;;
42600;SDS011;28229;48.856;9.088;2023-03-13T05:34:32;0.60;;;0.60;;
42600;SDS011;28229;48.856;9.088;2023-03-13T05:37:18;1.60;;;0.60;;
42600;SDS011;28229;48.856;9.088;2023-03-13T05:40:05;1.23;;;0.53;;
42600;SDS011;28229;48.856;9.088;2023-03-13T05:42:39;0.70;;;0.70;;
42600;SDS011;28229;48.856;9.088;2023-03-13T05:45:19;0.90;;;0.60;;
42600;SDS011;28229;48.856;9.088;2023-03-13T05:48:10;1.27;;;0.50;;
42600;SDS011;28229;48.856;9.088;2023-03-13T05:50:55;0.70;;;0.60;;
42600;SDS011;28229;48.856;9.088;2023-03-13T05:53:44;1.23;;;0.57;;
42600;SDS011;28229;48.856;9.088;2023-03-13T05:56:29;0.40;;;0.40;;
42600;SDS011;28229;48.856;9.088;2023-03-13T05:59:08;0.67;;;0.57;;
42600;SDS011;28229;48.856;9.088;2023-03-13T06:02:10;1.10;;;0.70;;
42600;SDS011;28229;48.856;9.088;2023-03-13T06:04:41;1.00;;;0.50;;
42600;SDS011;28229;48.856;9.088;2023-03-13T06:07:07;0.97;;;0.70;;
42600;SDS011;28229;48.856;9.088;2023-03-13T06:09:33;0.77;;;0.43;;
42600;SDS011;28229;48.856;9.088;2023-03-13T06:11:59;0.93;;;0.83;;
42600;SDS011;28229;48.856;9.088;2023-03-13T06:14:27;7.23;;;3.77;;
42600;SDS011;28229;48.856;9.088;2023-03-13T06:17:25;1.17;;;0.70;;
42600;SDS011;28229;48.856;9.088;2023-03-13T06:19:51;0.70;;;0.60;;
42600;SDS011;28229;48.856;9.088;2023-03-13T06:22:17;1.03;;;0.80;;
42600;SDS011;28229;48.856;9.088;2023-03-13T06:24:43;0.47;;;0.47;;
42600;SDS011;28229;48.856;9.088;2023-03-13T06:27:11;0.73;;;0.40;;
42600;SDS011;28229;48.856;9.088;2023-03-13T06:29:40;0.67;;;0.50;;
42600;SDS011;28229;48.856;9.088;2023-03-13T06:32:08;0.70;;;0.70;;
42600;SDS011;28229;48.856;9.088;2023-03-13T06:34:35;0.70;;;0.40;;
42600;SDS011;28229;48.856;9.088;2023-03-13T06:37:01;0.60;;;0.50;;
42600;SDS011;28229;48.856;9.088;2023-03-13T06:39:27;0.57;;;0.50;;
42600;SDS011;28229;48.856;9.088;2023-03-13T06:41:53;0.60;;;0.40;;
42600;SDS011;28229;48.856;9.088;2023-03-13T06:44:20;0.50;;;0.50;;
42600;SDS011;28229;48.856;9.088;2023-03-13T06:46:46;0.60;;;0.60;;
42600;SDS011;28229;48.856;9.088;2023-03-13T06:49:12;2.63;;;1.40;;
42600;SDS011;28229;48.856;9.088;2023-03-13T06:51:38;0.63;;;0.60;;
42600;SDS011;28229;48.856;9.088;2023-03-13T06:54:04;0.40;;;0.40;;
42600;SDS011;28229;48.856;9.088;2023-03-13T06:56:30;1.47;;;0.70;;
42600;SDS011;28229;48.856;9.088;2023-03-13T06:58:57;0.50;;;0.50;;
42600;SDS011;28229;48.856;9.088;2023-03-13T07:01:23;0.63;;;0.50;;
42600;SDS011;28229;48.856;9.088;2023-03-13T07:03:49;0.40;;;0.40;;
42600;SDS011;28229;48.856;9.088;2023-03-13T07:06:15;0.80;;;0.60;;
42600;SDS011;28229;48.856;9.088;2023-03-13T07:08:43;0.43;;;0.40;;
42600;SDS011;28229;48.856;9.088;2023-03-13T07:11:10;2.17;;;0.50;;
42600;SDS011;28229;48.856;9.088;2023-03-13T07:13:37;0.27;;;0.27;;
42600;SDS011;28229;48.856;9.088;2023-03-13T07:16:05;0.50;;;0.50;;
42600;SDS011;28229;48.856;9.088;2023-03-13T07:18:36;0.63;;;0.60;;
42600;SDS011;28229;48.856;9.088;2023-03-13T07:21:03;0.63;;;0.40;;
42600;SDS011;28229;48.856;9.088;2023-03-13T07:23:31;0.40;;;0.40;;
42600;SDS011;28229;48.856;9.088;2023-03-13T07:25:59;1.60;;;0.60;;
42600;SDS011;28229;48.856;9.088;2023-03-13T07:28:27;2.23;;;0.50;;
42600;SDS011;28229;48.856;9.088;2023-03-13T07:31:05;0.40;;;0.40;;
42600;SDS011;28229;48.856;9.088;2023-03-13T07:33:33;0.83;;;0.50;;
42600;SDS011;28229;48.856;9.088;2023-03-13T07:35:59;0.93;;;0.50;;
42600;SDS011;28229;48.856;9.088;2023-03-13T07:38:26;0.50;;;0.50;;
42600;SDS011;28229;48.856;9.088;2023-03-13T07:40:53;1.10;;;0.50;;
42600;SDS011;28229;48.856;9.088;2023-03-13T07:43:21;2.00;;;0.70;;
42600;SDS011;28229;48.856;9.088;2023-03-13T07:45:56;1.20;;;0.60;;
42600;SDS011;28229;48.856;9.088;2023-03-13T07:48:25;0.83;;;0.83;;
42600;SDS011;28229;48.856;9.088;2023-03-13T07:50:54;0.70;;;0.70;;
42600;SDS011;28229;48.856;9.088;2023-03-13T07:53:21;0.87;;;0.80;;
42600;SDS011;28229;48.856;9.088;2023-03-13T07:55:51;0.50;;;0.50;;
42600;SDS011;28229;48.856;9.088;2023-03-13T07:58:22;0.60;;;0.60;;
42600;SDS011;28229;48.856;9.088;2023-03-13T08:00:50;0.70;;;0.70;;
42600;SDS011;28229;48.856;9.088;2023-03-13T08:03:16;0.83;;;0.60;;
42600;SDS011;28229;48.856;9.088;2023-03-13T08:05:42;0.80;;;0.80;;
42600;SDS011;28229;48.856;9.088;2023-03-13T08:08:10;0.47;;;0.47;;
42600;SDS011;28229;48.856;9.088;2023-03-13T08:10:37;1.37;;;1.10;;
42600;SDS011;28229;48.856;9.088;2023-03-13T08:13:04;0.60;;;0.60;;
42600;SDS011;28229;48.856;9.088;2023-03-13T08:15:30;0.90;;;0.90;;
42600;SDS011;28229;48.856;9.088;2023-03-13T08:17:56;1.50;;;0.50;;
42600;SDS011;28229;48.856;9.088;2023-03-13T08:20:23;0.63;;;0.63;;
42600;SDS011;28229;48.856;9.088;2023-03-13T08:22:49;2.03;;;1.00;;
42600;SDS011;28229;48.856;9.088;2023-03-13T08:25:15;1.30;;;0.90;;
42600;SDS011;28229;48.856;9.088;2023-03-13T08:27:42;1.83;;;1.30;;
42600;SDS011;28229;48.856;9.088;2023-03-13T08:30:08;1.53;;;1.40;;
42600;SDS011;28229;48.856;9.088;2023-03-13T08:32:35;1.00;;;1.00;;
42600;SDS011;28229;48.856;9.088;2023-03-13T08:35:02;2.83;;;2.53;;
42600;SDS011;28229;48.856;9.088;2023-03-13T08:37:29;1.27;;;0.90;;
42600;SDS011;28229;48.856;9.088;2023-03-13T08:39:55;3.97;;;1.73;;
42600;SDS011;28229;48.856;9.088;2023-03-13T08:42:21;1.60;;;1.30;;
42600;SDS011;28229;48.856;9.088;2023-03-13T08:44:48;1.37;;;0.80;;
42600;SDS011;28229;48.856;9.088;2023-03-13T08:47:15;0.90;;;0.90;;
42600;SDS011;28229;48.856;9.088;2023-03-13T08:49:43;1.23;;;0.80;;
42600;SDS011;28229;48.856;9.088;2023-03-13T08:52:09;0.97;;;0.90;;
42600;SDS011;28229;48.856;9.088;2023-03-13T08:54:36;1.37;;;0.80;;
42600;SDS011;28229;48.856;9.088;2023-03-13T08:57:02;2.70;;;2.50;;
42600;SDS011;28229;48.856;9.088;2023-03-13T08:59:28;1.20;;;1.00;;
42600;SDS011;28229;48.856;9.088;2023-03-13T09:01:54;1.20;;;1.00;;
42600;SDS011;28229;48.856;9.088;2023-03-13T09:04:21;3.50;;;1.33;;
42600;SDS011;28229;48.856;9.088;2023-03-13T09:06:47;1.70;;;0.70;;
42600;SDS011;28229;48.856;9.088;2023-03-13T09:09:13;0.97;;;0.90;;
42600;SDS011;28229;48.856;9.088;2023-03-13T09:11:39;1.70;;;0.90;;
42600;SDS011;28229;48.856;9.088;2023-03-13T09:14:06;1.10;;;1.00;;
42600;SDS011;28229;48.856;9.088;2023-03-13T09:16:33;1.10;;;1.00;;
42600;SDS011;28229;48.856;9.088;2023-03-13T09:19:00;2.10;;;1.10;;
42600;SDS011;28229;48.856;9.088;2023-03-13T09:21:27;0.80;;;0.80;;
42600;SDS011;28229;48.856;9.088;2023-03-13T09:23:58;2.43;;;1.00;;
42600;SDS011;28229;48.856;9.088;2023-03-13T09:26:25;1.00;;;0.90;;
42600;SDS011;28229;48.856;9.088;2023-03-13T09:28:52;1.67;;;1.20;;
42600;SDS011;28229;48.856;9.088;2023-03-13T09:31:20;1.37;;;1.00;;
42600;SDS011;28229;48.856;9.088;2023-03-13T09:33:48;0.90;;;0.90;;
42600;SDS011;28229;48.856;9.088;2023-03-13T09:36:15;1.07;;;1.00;;
42600;SDS011;28229;48.856;9.088;2023-03-13T09:38:42;1.87;;;1.20;;
42600;SDS011;28229;48.856;9.088;2023-03-13T09:49:44;2.50;;;1.00;;
42600;SDS011;28229;48.856;9.088;2023-03-13T09:52:25;1.30;;;1.20;;
42600;SDS011;28229;48.856;9.088;2023-03-13T09:57:41;2.10;;;1.20;;
42600;SDS011;28229;48.856;9.088;2023-03-13T10:02:56;1.37;;;1.27;;
42600;SDS011;28229;48.856;9.088;2023-03-13T10:05:23;1.13;;;1.10;;
42600;SDS011;28229;48.856;9.088;2023-03-13T10:07:55;2.53;;;1.40;;
42600;SDS011;28229;48.856;9.088;2023-03-13T10:13:27;1.73;;;1.10;;
42600;SDS011;28229;48.856;9.088;2023-03-13T10:16:04;1.90;;;1.07;;
42600;SDS011;28229;48.856;9.088;2023-03-13T10:18:42;1.60;;;1.27;;
42600;SDS011;28229;48.856;9.088;2023-03-13T10:21:16;1.73;;;1.17;;
42600;SDS011;28229;48.856;9.088;2023-03-13T10:26:48;1.93;;;1.20;;
42600;SDS011;28229;48.856;9.088;2023-03-13T10:29:24;1.73;;;1.40;;
42600;SDS011;28229;48.856;9.088;2023-03-13T10:31:59;1.43;;;1.10;;
42600;SDS011;28229;48.856;9.088;2023-03-13T10:34:28;1.53;;;1.20;;
42600;SDS011;28229;48.856;9.088;2023-03-13T10:37:11;2.53;;;1.40;;
42600;SDS011;28229;48.856;9.088;2023-03-13T10:39:39;1.50;;;1.40;;
42600;SDS011;28229;48.856;9.088;2023-03-13T10:42:09;1.57;;;1.30;;
42600;SDS011;28229;48.856;9.088;2023-03-13T10:44:43;1.37;;;1.20;;
42600;SDS011;28229;48.856;9.088;2023-03-13T10:47:10;3.30;;;2.40;;
42600;SDS011;28229;48.856;9.088;2023-03-13T10:49:49;2.87;;;1.57;;
42600;SDS011;28229;48.856;9.088;2023-03-13T10:52:41;3.63;;;2.77;;
42600;SDS011;28229;48.856;9.088;2023-03-13T10:55:15;2.50;;;2.20;;
42600;SDS011;28229;48.856;9.088;2023-03-13T10:57:51;2.50;;;1.40;;
42600;SDS011;28229;48.856;9.088;2023-03-13T11:00:32;1.70;;;1.60;;
42600;SDS011;28229;48.856;9.088;2023-03-13T11:03:01;3.03;;;1.40;;
42600;SDS011;28229;48.856;9.088;2023-03-13T11:05:39;2.00;;;1.60;;
42600;SDS011;28229;48.856;9.088;2023-03-13T11:08:19;2.83;;;1.43;;
42600;SDS011;28229;48.856;9.088;2023-03-13T11:10:52;1.57;;;1.40;;
42600;SDS011;28229;48.856;9.088;2023-03-13T11:15:58;2.67;;;1.23;;
42600;SDS011;28229;48.856;9.088;2023-03-13T11:21:35;2.70;;;1.33;;
42600;SDS011;28229;48.856;9.088;2023-03-13T11:27:14;1.83;;;1.50;;
42600;SDS011;28229;48.856;9.088;2023-03-13T11:30:05;1.40;;;1.30;;
42600;SDS011;28229;48.856;9.088;2023-03-13T11:35:25;1.30;;;1.20;;
42600;SDS011;28229;48.856;9.088;2023-03-13T11:38:02;1.40;;;1.30;;
42600;SDS011;28229;48.856;9.088;2023-03-13T11:49:58;1.83;;;1.30;;
42600;SDS011;28229;48.856;9.088;2023-03-13T12:01:29;1.83;;;1.30;;
42600;SDS011;28229;48.856;9.088;2023-03-13T12:04:08;1.73;;;1.13;;
42600;SDS011;28229;48.856;9.088;2023-03-13T12:06:44;1.90;;;1.30;;
42600;SDS011;28229;48.856;9.088;2023-03-13T12:11:59;1.80;;;1.17;;
42600;SDS011;28229;48.856;9.088;2023-03-13T12:14:42;1.63;;;1.10;;
42600;SDS011;28229;48.856;9.088;2023-03-13T12:17:30;2.43;;;1.10;;
42600;SDS011;28229;48.856;9.088;2023-03-13T12:20:10;1.87;;;1.20;;
42600;SDS011;28229;48.856;9.088;2023-03-13T12:22:56;1.60;;;1.20;;
42600;SDS011;28229;48.856;9.088;2023-03-13T12:25:39;1.63;;;1.40;;
42600;SDS011;28229;48.856;9.088;2023-03-13T12:30:59;2.30;;;1.27;;
42600;SDS011;28229;48.856;9.088;2023-03-13T12:33:28;3.80;;;1.40;;
42600;SDS011;28229;48.856;9.088;2023-03-13T12:36:03;2.40;;;2.20;;
42600;SDS011;28229;48.856;9.088;2023-03-13T12:38:48;4.80;;;1.73;;
42600;SDS011;28229;48.856;9.088;2023-03-13T12:41:25;1.80;;;1.70;;
42600;SDS011;28229;48.856;9.088;2023-03-13T12:43:55;1.70;;;1.30;;
42600;SDS011;28229;48.856;9.088;2023-03-13T12:57:33;1.50;;;1.00;;
42600;SDS011;28229;48.856;9.088;2023-03-13T13:00:16;2.53;;;1.00;;
42600;SDS011;28229;48.856;9.088;2023-03-13T13:02:45;1.23;;;1.00;;
42600;SDS011;28229;48.856;9.088;2023-03-13T13:05:19;1.30;;;1.10;;
42600;SDS011;28229;48.856;9.088;2023-03-13T13:07:55;2.17;;;1.13;;
42600;SDS011;28229;48.856;9.088;2023-03-13T13:10:25;2.70;;;1.10;;
42600;SDS011;28229;48.856;9.088;2023-03-13T13:18:26;1.33;;;1.10;;
42600;SDS011;28229;48.856;9.088;2023-03-13T13:23:28;0.97;;;0.90;;
42600;SDS011;28229;48.856;9.088;2023-03-13T13:28:52;1.10;;;1.00;;
42600;SDS011;28229;48.856;9.088;2023-03-13T13:36:59;0.90;;;0.90;;
42600;SDS011;28229;48.856;9.088;2023-03-13T13:39:40;2.10;;;0.77;;
42600;SDS011;28229;48.856;9.088;2023-03-13T13:45:00;0.80;;;0.80;;
42600;SDS011;28229;48.856;9.088;2023-03-13T13:47:46;2.10;;;0.90;;
42600;SDS011;28229;48.856;9.088;2023-03-13T13:52:51;1.57;;;0.80;;
42600;SDS011;28229;48.856;9.088;2023-03-13T13:58:13;2.00;;;1.00;;
42600;SDS011;28229;48.856;9.088;2023-03-13T14:00:58;1.87;;;0.77;;
42600;SDS011;28229;48.856;9.088;2023-03-13T14:03:27;0.97;;;0.90;;
42600;SDS011;28229;48.856;9.088;2023-03-13T14:06:33;2.53;;;0.90;;
42600;SDS011;28229;48.856;9.088;2023-03-13T14:08:56;2.13;;;0.90;;
42600;SDS011;28229;48.856;9.088;2023-03-13T14:11:39;1.47;;;0.70;;
42600;SDS011;28229;48.856;9.088;2023-03-13T14:16:36;0.70;;;0.70;;
42600;SDS011;28229;48.856;9.088;2023-03-13T14:19:03;1.57;;;1.10;;
42600;SDS011;28229;48.856;9.088;2023-03-13T14:21:29;1.83;;;0.90;;
42600;SDS011;28229;48.856;9.088;2023-03-13T14:23:55;0.80;;;0.80;;
42600;SDS011;28229;48.856;9.088;2023-03-13T14:26:23;0.90;;;0.90;;
42600;SDS011;28229;48.856;9.088;2023-03-13T14:28:59;1.20;;;0.80;;
42600;SDS011;28229;48.856;9.088;2023-03-13T14:31:34;0.93;;;0.80;;
42600;SDS011;28229;48.856;9.088;2023-03-13T14:34:08;0.70;;;0.70;;
42600;SDS011;28229;48.856;9.088;2023-03-13T14:36:50;0.87;;;0.87;;
42600;SDS011;28229;48.856;9.088;2023-03-13T14:39:18;2.57;;;0.90;;
42600;SDS011;28229;48.856;9.088;2023-03-13T14:41:47;0.80;;;0.80;;
42600;SDS011;28229;48.856;9.088;2023-03-13T14:44:22;0.90;;;0.80;;
42600;SDS011;28229;48.856;9.088;2023-03-13T14:46:54;2.33;;;1.00;;
42600;SDS011;28229;48.856;9.088;2023-03-13T14:49:24;1.00;;;1.00;;
42600;SDS011;28229;48.856;9.088;2023-03-13T14:54:51;1.43;;;1.00;;
42600;SDS011;28229;48.856;9.088;2023-03-13T14:57:19;2.43;;;0.90;;
42600;SDS011;28229;48.856;9.088;2023-03-13T14:59:48;1.97;;;0.97;;
42600;SDS011;28229;48.856;9.088;2023-03-13T15:02:25;1.10;;;0.90;;
42600;SDS011;28229;48.856;9.088;2023-03-13T15:04:57;1.63;;;1.03;;
42600;SDS011;28229;48.856;9.088;2023-03-13T15:07:26;1.13;;;0.90;;
42600;SDS011;28229;48.856;9.088;2023-03-13T15:10:16;1.27;;;0.97;;
42600;SDS011;28229;48.856;9.088;2023-03-13T15:12:50;2.23;;;1.03;;
42600;SDS011;28229;48.856;9.088;2023-03-13T15:15:17;2.80;;;0.93;;
42600;SDS011;28229;48.856;9.088;2023-03-13T15:17:43;1.00;;;0.90;;
42600;SDS011;28229;48.856;9.088;2023-03-13T15:20:12;1.27;;;1.00;;
42600;SDS011;28229;48.856;9.088;2023-03-13T15:22:39;1.17;;;0.90;;
42600;SDS011;28229;48.856;9.088;2023-03-13T15:25:16;0.97;;;0.90;;
42600;SDS011;28229;48.856;9.088;2023-03-13T15:27:47;2.63;;;0.90;;
42600;SDS011;28229;48.856;9.088;2023-03-13T15:30:15;0.93;;;0.93;;
42600;SDS011;28229;48.856;9.088;2023-03-13T15:32:46;2.10;;;0.90;;
42600;SDS011;28229;48.856;9.088;2023-03-13T15:37:55;2.10;;;1.03;;
42600;SDS011;28229;48.856;9.088;2023-03-13T15:40:23;2.17;;;1.10;;
42600;SDS011;28229;48.856;9.088;2023-03-13T15:42:51;2.33;;;0.90;;
42600;SDS011;28229;48.856;9.088;2023-03-13T15:45:17;2.53;;;1.03;;
42600;SDS011;28229;48.856;9.088;2023-03-13T15:47:44;1.27;;;0.80;;
42600;SDS011;28229;48.856;9.088;2023-03-13T15:50:14;0.80;;;0.80;;
42600;SDS011;28229;48.856;9.088;2023-03-13T15:52:43;1.00;;;1.00;;
42600;SDS011;28229;48.856;9.088;2023-03-13T15:55:10;1.20;;;1.00;;
42600;SDS011;28229;48.856;9.088;2023-03-13T15:57:39;1.03;;;0.97;;
42600;SDS011;28229;48.856;9.088;2023-03-13T16:00:12;1.03;;;0.90;;
42600;SDS011;28229;48.856;9.088;2023-03-13T16:02:43;2.07;;;1.00;;
42600;SDS011;28229;48.856;9.088;2023-03-13T16:05:09;1.17;;;1.00;;
42600;SDS011;28229;48.856;9.088;2023-03-13T16:07:36;1.67;;;1.00;;
42600;SDS011;28229;48.856;9.088;2023-03-13T16:10:02;1.00;;;0.90;;
42600;SDS011;28229;48.856;9.088;2023-03-13T16:12:31;0.97;;;0.90;;
42600;SDS011;28229;48.856;9.088;2023-03-13T16:14:57;1.20;;;0.90;;
42600;SDS011;28229;48.856;9.088;2023-03-13T16:17:24;1.50;;;1.00;;
42600;SDS011;28229;48.856;9.088;2023-03-13T16:19:53;1.23;;;1.07;;
42600;SDS011;28229;48.856;9.088;2023-03-13T16:22:20;1.57;;;1.10;;
42600;SDS011;28229;48.856;9.088;2023-03-13T16:24:46;1.23;;;1.10;;
42600;SDS011;28229;48.856;9.088;2023-03-13T16:27:14;1.43;;;1.30;;
42600;SDS011;28229;48.856;9.088;2023-03-13T16:29:42;1.07;;;1.03;;
42600;SDS011;28229;48.856;9.088;2023-03-13T16:32:10;1.07;;;0.93;;
42600;SDS011;28229;48.856;9.088;2023-03-13T16:34:38;0.93;;;0.80;;
42600;SDS011;28229;48.856;9.088;2023-03-13T16:37:11;2.23;;;1.10;;
42600;SDS011;28229;48.856;9.088;2023-03-13T16:39:39;1.07;;;1.03;;
42600;SDS011;28229;48.856;9.088;2023-03-13T16:42:05;1.57;;;1.10;;
42600;SDS011;28229;48.856;9.088;2023-03-13T16:44:32;1.10;;;1.00;;
42600;SDS011;28229;48.856;9.088;2023-03-13T16:46:58;1.07;;;0.97;;
42600;SDS011;28229;48.856;9.088;2023-03-13T16:49:24;2.00;;;1.10;;
42600;SDS011;28229;48.856;9.088;2023-03-13T16:51:51;2.10;;;1.30;;
42600;SDS011;28229;48.856;9.088;2023-03-13T16:54:17;1.37;;;1.23;;
42600;SDS011;28229;48.856;9.088;2023-03-13T16:56:43;1.17;;;1.07;;
42600;SDS011;28229;48.856;9.088;2023-03-13T16:59:10;1.30;;;1.20;;
42600;SDS011;28229;48.856;9.088;2023-03-13T17:01:38;2.93;;;1.23;;
42600;SDS011;28229;48.856;9.088;2023-03-13T17:04:04;1.70;;;1.20;;
42600;SDS011;28229;48.856;9.088;2023-03-13T17:06:32;3.03;;;2.47;;
42600;SDS011;28229;48.856;9.088;2023-03-13T17:08:59;6.13;;;3.53;;
42600;SDS011;28229;48.856;9.088;2023-03-13T17:11:28;4.50;;;2.53;;
42600;SDS011;28229;48.856;9.088;2023-03-13T17:13:55;9.53;;;6.83;;